createdAt,value
2022-11-06T00:01:11.498Z,97900.41
2022-11-06T00:03:45.026Z,97904.54
2022-11-06T00:06:37.878Z,97902.11
2022-11-06T00:09:12.719Z,97903.58
2022-11-06T00:11:46.047Z,97906.32
2022-11-06T00:14:21.202Z,97911.67
2022-11-06T00:16:53.978Z,97912.02
2022-11-06T00:19:26.786Z,97917.55
2022-11-06T00:21:59.348Z,97920.30
2022-11-06T00:24:40.930Z,97920.83
2022-11-06T00:27:13.639Z,97924.61
2022-11-06T00:29:46.290Z,97929.63
2022-11-06T00:32:19.129Z,97926.20
2022-11-06T00:34:52.133Z,97928.97
2022-11-06T00:37:32.544Z,97927.52
2022-11-06T00:40:05.637Z,97928.14
2022-11-06T00:42:38.468Z,97923.69
2022-11-06T00:45:14.438Z,97922.19
2022-11-06T00:47:45.058Z,97926.30
2022-11-06T00:50:18.319Z,97926.70
2022-11-06T00:52:50.838Z,97921.88
2022-11-06T00:55:23.319Z,97920.47
2022-11-06T00:57:56.098Z,97924.42
2022-11-06T01:00:29.039Z,97923.94
2022-11-06T01:03:01.681Z,97926.75
2022-11-06T01:05:34.462Z,97926.42
2022-11-06T01:08:08.499Z,97931.56
2022-11-06T01:10:42.019Z,97931.91
2022-11-06T01:13:13.127Z,97934.86
2022-11-06T01:15:45.899Z,97938.01
2022-11-06T01:18:18.899Z,97942.49
2022-11-06T01:20:51.554Z,97937.52
2022-11-06T01:23:24.385Z,97937.38
2022-11-06T01:26:07.193Z,97934.61
2022-11-06T01:28:40.432Z,97934.75
2022-11-06T01:31:15.579Z,97932.34
2022-11-06T01:34:04.868Z,97933.63
2022-11-06T01:36:39.659Z,97929.71
2022-11-06T01:39:16.083Z,97929.58
2022-11-06T01:41:51.937Z,97932.35
2022-11-06T01:45:19.040Z,97933.05
2022-11-06T01:47:52.176Z,97932.08
2022-11-06T01:50:26.011Z,97937.23
2022-11-06T01:53:01.279Z,97940.30
2022-11-06T01:55:41.209Z,97942.18
2022-11-06T01:58:17.498Z,97944.90
2022-11-06T02:00:50.628Z,97944.45
2022-11-06T02:03:23.268Z,97947.33
2022-11-06T02:05:58.418Z,97946.54
2022-11-06T02:08:31.728Z,97947.73
2022-11-06T02:11:04.448Z,97950.98
2022-11-06T02:13:46.619Z,97948.23
2022-11-06T02:16:27.618Z,97946.20
2022-11-06T02:19:32.028Z,97946.95
2022-11-06T02:22:20.699Z,97945.89
2022-11-06T02:25:18.037Z,97944.54
2022-11-06T02:27:55.634Z,97945.54
2022-11-06T02:30:28.479Z,97945.89
2022-11-06T02:33:03.309Z,97942.98
2022-11-06T02:35:42.418Z,97943.16
2022-11-06T02:38:19.297Z,97945.27
2022-11-06T02:40:58.605Z,97945.13
2022-11-06T02:43:37.316Z,97945.98
2022-11-06T02:46:25.740Z,97945.67
2022-11-06T02:49:04.125Z,97950.36
2022-11-06T02:51:42.769Z,97950.88
2022-11-06T02:54:17.505Z,97955.86
2022-11-06T02:56:53.478Z,97960.84
2022-11-06T02:59:33.097Z,97958.29
2022-11-06T03:02:09.338Z,97960.35
2022-11-06T03:04:47.949Z,97959.05
2022-11-06T03:07:26.738Z,97960.95
2022-11-06T03:09:59.717Z,97963.34
2022-11-06T03:12:35.406Z,97966.09
2022-11-06T03:15:20.477Z,97964.02
2022-11-06T03:18:00.706Z,97969.18
2022-11-06T03:20:37.737Z,97965.23
2022-11-06T03:23:17.847Z,97964.38
2022-11-06T03:25:57.320Z,97965.76
2022-11-06T03:28:35.921Z,97965.44
2022-11-06T03:31:16.919Z,97968.00
2022-11-06T03:33:54.626Z,97969.90
2022-11-06T03:36:31.007Z,97968.91
2022-11-06T03:39:08.056Z,97968.60
2022-11-06T03:41:48.548Z,97975.48
2022-11-06T03:44:25.074Z,97978.41
2022-11-06T03:47:01.279Z,97979.14
2022-11-06T03:49:38.778Z,97985.17
2022-11-06T03:52:16.560Z,97984.73
2022-11-06T03:54:56.459Z,97983.00
2022-11-06T03:57:35.578Z,97982.86
2022-11-06T04:00:11.737Z,97985.41
2022-11-06T04:02:53.604Z,97988.02
2022-11-06T04:05:29.230Z,97988.36
2022-11-06T04:08:19.219Z,97990.79
2022-11-06T04:11:14.387Z,97991.30
2022-11-06T04:14:02.194Z,97990.45
2022-11-06T04:16:40.497Z,97990.67
2022-11-06T04:19:18.548Z,97992.91
2022-11-06T04:22:04.106Z,97995.34
2022-11-06T04:25:06.418Z,98000.33
2022-11-06T04:27:56.107Z,98002.24
2022-11-06T04:30:32.027Z,98000.54
2022-11-06T04:33:22.356Z,98002.93
2022-11-06T04:36:03.958Z,98007.42
2022-11-06T04:38:44.267Z,98009.16
2022-11-06T04:41:22.318Z,98006.06
2022-11-06T04:44:00.349Z,98007.08
2022-11-06T04:46:39.818Z,98009.98
2022-11-06T04:49:15.029Z,98007.27
2022-11-06T04:51:50.128Z,98006.59
2022-11-06T04:54:26.662Z,98007.45
2022-11-06T04:57:02.681Z,98005.40
2022-11-06T04:59:38.348Z,98011.62
2022-11-06T05:02:12.026Z,98016.40
2022-11-06T05:04:45.719Z,98010.23
2022-11-06T05:07:16.948Z,98008.73
2022-11-06T05:09:49.445Z,98010.84
2022-11-06T05:12:22.358Z,98011.33
2022-11-06T05:14:54.859Z,98021.79
2022-11-06T05:17:31.514Z,98021.62
2022-11-06T05:20:10.478Z,98025.55
2022-11-06T05:23:02.207Z,98025.38
2022-11-06T05:25:40.419Z,98023.83
2022-11-06T05:28:13.419Z,98023.81
2022-11-06T05:30:47.189Z,98025.19
2022-11-06T05:33:22.887Z,98024.85
2022-11-06T05:35:55.599Z,98030.86
2022-11-06T05:38:30.720Z,98034.13
2022-11-06T05:41:03.638Z,98033.95
2022-11-06T05:43:39.127Z,98029.31
2022-11-06T05:46:29.768Z,98031.38
2022-11-06T05:49:04.324Z,98031.90
2022-11-06T05:51:36.849Z,98028.81
2022-11-06T05:54:11.100Z,98027.27
2022-11-06T05:56:44.138Z,98029.33
2022-11-06T05:59:16.708Z,98036.90
2022-11-06T06:01:49.214Z,98045.84
2022-11-06T06:04:21.792Z,98046.02
2022-11-06T06:06:55.028Z,98049.77
2022-11-06T06:09:27.900Z,98051.15
2022-11-06T06:12:00.918Z,98053.88
2022-11-06T06:14:56.237Z,98055.27
2022-11-06T06:17:29.128Z,98053.88
2022-11-06T06:20:01.777Z,98053.02
2022-11-06T06:22:34.540Z,98056.77
2022-11-06T06:25:16.217Z,98058.00
2022-11-06T06:27:55.970Z,98060.04
2022-11-06T06:30:29.142Z,98056.09
2022-11-06T06:33:08.304Z,98058.47
2022-11-06T06:35:40.872Z,98058.30
2022-11-06T06:38:13.475Z,98059.32
2022-11-06T06:40:46.237Z,98068.58
2022-11-06T06:43:18.906Z,98071.34
2022-11-06T06:45:53.440Z,98075.46
2022-11-06T06:48:25.899Z,98074.41
2022-11-06T06:51:00.309Z,98072.88
2022-11-06T06:53:35.071Z,98068.86
2022-11-06T06:56:08.783Z,98068.81
2022-11-06T06:58:41.378Z,98065.37
2022-11-06T07:01:14.200Z,98069.98
2022-11-06T07:03:46.781Z,98074.77
2022-11-06T07:06:21.769Z,98074.41
2022-11-06T07:08:59.059Z,98075.08
2022-11-06T07:11:35.020Z,98072.69
2022-11-06T07:14:07.849Z,98073.05
2022-11-06T07:16:40.531Z,98075.58
2022-11-06T07:19:13.471Z,98075.57
2022-11-06T07:21:46.699Z,98077.11
2022-11-06T07:24:19.386Z,98072.83
2022-11-06T07:26:52.049Z,98075.73
2022-11-06T07:29:24.548Z,98080.69
2022-11-06T07:31:57.489Z,98079.32
2022-11-06T07:34:30.061Z,98075.20
2022-11-06T07:37:07.347Z,98075.60
2022-11-06T07:39:40.478Z,98076.09
2022-11-06T07:42:13.158Z,98082.64
2022-11-06T07:45:00.462Z,98080.92
2022-11-06T07:47:34.729Z,98084.97
2022-11-06T07:50:08.619Z,98082.89
2022-11-06T07:52:42.536Z,98081.32
2022-11-06T07:55:15.378Z,98080.95
2022-11-06T07:57:48.132Z,98084.70
2022-11-06T08:00:21.470Z,98088.48
2022-11-06T08:02:57.650Z,98087.29
2022-11-06T08:05:30.702Z,98087.41
2022-11-06T08:08:05.549Z,98090.84
2022-11-06T08:10:40.868Z,98092.40
2022-11-06T08:13:16.448Z,98088.27
2022-11-06T08:15:50.657Z,98079.42
2022-11-06T08:18:23.236Z,98073.70
2022-11-06T08:20:56.389Z,98073.50
2022-11-06T08:23:29.666Z,98076.86
2022-11-06T08:26:01.946Z,98077.70
2022-11-06T08:28:34.473Z,98078.08
2022-11-06T08:31:10.911Z,98077.45
2022-11-06T08:33:43.419Z,98074.50
2022-11-06T08:36:17.477Z,98078.77
2022-11-06T08:38:51.049Z,98077.21
2022-11-06T08:41:21.699Z,98083.48
2022-11-06T08:43:56.489Z,98086.95
2022-11-06T08:46:29.139Z,98082.40
2022-11-06T08:49:01.709Z,98082.52
2022-11-06T08:51:35.948Z,98078.45
2022-11-06T08:54:08.569Z,98079.88
2022-11-06T08:56:41.198Z,98081.50
2022-11-06T08:59:14.919Z,98084.02
2022-11-06T09:01:45.816Z,98083.70
2022-11-06T09:04:18.589Z,98081.55
2022-11-06T09:06:51.329Z,98082.11
2022-11-06T09:09:24.179Z,98081.55
2022-11-06T09:11:56.829Z,98082.18
2022-11-06T09:14:30.029Z,98081.96
2022-11-06T09:17:04.699Z,98083.13
2022-11-06T09:19:38.210Z,98082.76
2022-11-06T09:22:08.979Z,98085.38
2022-11-06T09:25:02.659Z,98088.48
2022-11-06T09:27:34.709Z,98094.59
2022-11-06T09:30:08.500Z,98100.52
2022-11-06T09:32:46.841Z,98099.77
2022-11-06T09:35:19.904Z,98095.66
2022-11-06T09:37:53.226Z,98094.31
2022-11-06T09:40:36.527Z,98090.04
2022-11-06T09:43:58.112Z,98089.87
2022-11-06T09:46:26.539Z,98091.50
2022-11-06T09:49:07.381Z,98098.77
2022-11-06T09:51:46.532Z,98099.73
2022-11-06T09:54:24.328Z,98101.95
2022-11-06T09:57:02.358Z,98101.23
2022-11-06T09:59:37.798Z,98097.89
2022-11-06T10:02:23.525Z,98098.86
2022-11-06T10:05:04.459Z,98097.45
2022-11-06T10:07:39.879Z,98095.22
2022-11-06T10:10:19.068Z,98092.81
2022-11-06T10:13:22.501Z,98086.08
2022-11-06T10:16:03.809Z,98082.73
2022-11-06T10:18:55.139Z,98084.33
2022-11-06T10:21:36.519Z,98082.16
2022-11-06T10:24:17.468Z,98076.61
2022-11-06T10:27:00.354Z,98073.29
2022-11-06T10:29:57.781Z,98074.77
2022-11-06T10:32:58.351Z,98070.93
2022-11-06T10:35:37.717Z,98067.02
2022-11-06T10:38:16.597Z,98067.40
2022-11-06T10:40:52.809Z,98059.52
2022-11-06T10:43:32.939Z,98060.25
2022-11-06T10:46:14.391Z,98056.41
2022-11-06T10:48:51.600Z,98054.43
2022-11-06T10:51:40.437Z,98050.10
2022-11-06T10:54:28.089Z,98048.52
2022-11-06T10:57:27.319Z,98043.84
2022-11-06T11:00:00.749Z,98039.45
2022-11-06T11:02:37.092Z,98039.64
2022-11-06T11:05:19.717Z,98036.30
2022-11-06T11:07:53.127Z,98034.67
2022-11-06T11:10:34.548Z,98034.42
2022-11-06T11:13:21.494Z,98029.67
2022-11-06T11:15:54.291Z,98025.47
2022-11-06T11:18:31.680Z,98021.43
2022-11-06T11:21:24.669Z,98019.22
2022-11-06T11:24:13.566Z,98016.83
2022-11-06T11:26:49.758Z,98016.27
2022-11-06T11:29:30.128Z,98015.47
2022-11-06T11:32:07.528Z,98014.51
2022-11-06T11:34:51.363Z,98011.27
2022-11-06T11:37:41.325Z,98008.20
2022-11-06T11:40:37.349Z,98009.86
2022-11-06T11:43:29.696Z,98008.52
2022-11-06T11:46:23.418Z,98006.25
2022-11-06T11:48:58.221Z,98007.92
2022-11-06T11:51:35.068Z,98008.02
2022-11-06T11:54:21.400Z,98000.70
2022-11-06T11:57:10.042Z,97998.51
2022-11-06T11:59:49.169Z,97994.45
2022-11-06T12:02:27.991Z,97990.43
2022-11-06T12:05:04.299Z,97992.52
2022-11-06T12:07:45.788Z,97993.49
2022-11-06T12:10:28.749Z,97989.31
2022-11-06T12:13:04.350Z,97983.31
2022-11-06T12:15:48.758Z,97980.02
2022-11-06T12:18:25.129Z,97988.95
2022-11-06T12:21:04.059Z,97989.52
2022-11-06T12:23:44.534Z,97991.88
2022-11-06T12:26:27.721Z,97989.30
2022-11-06T12:29:06.826Z,97986.13
2022-11-06T12:31:42.709Z,97982.64
2022-11-06T12:34:25.899Z,97983.71
2022-11-06T12:37:12.478Z,97986.55
2022-11-06T12:39:51.277Z,97984.98
2022-11-06T12:42:27.338Z,97983.94
2022-11-06T12:44:59.898Z,97986.84
2022-11-06T12:47:50.888Z,97986.04
2022-11-06T12:50:41.579Z,97987.64
2022-11-06T12:53:32.457Z,97989.92
2022-11-06T12:56:15.857Z,97994.19
2022-11-06T12:59:03.338Z,97986.71
2022-11-06T13:01:54.035Z,97985.09
2022-11-06T13:04:37.285Z,97991.86
2022-11-06T13:07:45.308Z,97990.57
2022-11-06T13:10:41.279Z,97999.11
2022-11-06T13:13:37.127Z,97995.97
2022-11-06T13:16:22.696Z,97994.69
2022-11-06T13:19:00.779Z,98000.12
2022-11-06T13:21:40.638Z,97995.39
2022-11-06T13:24:19.224Z,97992.31
2022-11-06T13:26:56.448Z,97991.60
2022-11-06T13:29:29.438Z,97982.36
2022-11-06T13:32:04.819Z,97984.77
2022-11-06T13:34:40.038Z,97986.73
2022-11-06T13:37:18.799Z,97985.77
2022-11-06T13:39:56.378Z,97985.09
2022-11-06T13:42:42.028Z,97980.02
2022-11-06T13:45:19.308Z,97981.66
2022-11-06T13:48:05.637Z,97984.42
2022-11-06T13:50:48.877Z,97981.91
2022-11-06T13:53:31.629Z,97980.33
2022-11-06T13:56:18.383Z,97979.92
2022-11-06T13:59:14.098Z,97976.77
2022-11-06T14:01:55.889Z,97979.61
2022-11-06T14:04:53.809Z,97975.47
2022-11-06T14:07:28.818Z,97974.62
2022-11-06T14:10:01.836Z,97977.81
2022-11-06T14:12:35.969Z,97973.79
2022-11-06T14:15:25.057Z,97974.25
2022-11-06T14:18:01.219Z,97969.90
2022-11-06T14:20:36.797Z,97969.34
2022-11-06T14:23:49.528Z,97966.08
2022-11-06T14:26:42.170Z,97964.19
2022-11-06T14:29:57.788Z,97959.53
2022-11-06T14:32:47.991Z,97957.67
2022-11-06T14:35:52.926Z,97958.80
2022-11-06T14:38:48.008Z,97956.33
2022-11-06T14:41:59.217Z,97949.17
2022-11-06T14:44:51.518Z,97949.15
2022-11-06T14:47:36.117Z,97947.24
2022-11-06T14:50:28.359Z,97945.07
2022-11-06T14:53:08.053Z,97939.97
2022-11-06T14:55:47.459Z,97939.83
2022-11-06T14:58:24.168Z,97937.50
2022-11-06T15:00:59.545Z,97934.45
2022-11-06T15:03:44.788Z,97936.45
2022-11-06T15:06:43.942Z,97934.77
2022-11-06T15:09:37.397Z,97934.41
2022-11-06T15:12:11.269Z,97934.73
2022-11-06T15:15:09.139Z,97938.55
2022-11-06T15:17:44.232Z,97937.02
2022-11-06T15:20:26.830Z,97931.73
2022-11-06T15:23:16.529Z,97932.14
2022-11-06T15:26:06.128Z,97932.55
2022-11-06T15:28:46.931Z,97926.77
2022-11-06T15:31:22.450Z,97927.15
2022-11-06T15:34:01.154Z,97921.35
2022-11-06T15:36:40.437Z,97922.95
2022-11-06T15:39:41.090Z,97917.30
2022-11-06T15:42:18.896Z,97915.63
2022-11-06T15:44:52.478Z,97913.64
2022-11-06T15:47:27.078Z,97914.55
2022-11-06T15:50:19.005Z,97916.48
2022-11-06T15:52:53.676Z,97923.83
2022-11-06T15:55:33.168Z,97928.00
2022-11-06T15:58:29.573Z,97929.23
2022-11-06T16:01:04.739Z,97928.91
2022-11-06T16:03:50.508Z,97932.70
2022-11-06T16:06:24.550Z,97928.42
2022-11-06T16:08:58.670Z,97927.13
2022-11-06T16:11:31.357Z,97927.70
2022-11-06T16:14:04.116Z,97928.13
2022-11-06T16:16:42.335Z,97926.02
2022-11-06T16:19:29.559Z,97923.59
2022-11-06T16:22:07.782Z,97915.35
2022-11-06T16:24:47.208Z,97910.96
2022-11-06T16:27:20.290Z,97904.65
2022-11-06T16:29:58.180Z,97908.81
2022-11-06T16:32:33.197Z,97907.59
2022-11-06T16:35:26.995Z,97910.34
2022-11-06T16:38:40.561Z,97904.27
2022-11-06T16:41:34.789Z,97902.27
2022-11-06T16:44:31.022Z,97894.52
2022-11-06T16:47:19.819Z,97894.02
2022-11-06T16:50:02.990Z,97894.45
2022-11-06T16:52:39.207Z,97897.29
2022-11-06T16:55:28.810Z,97896.55
2022-11-06T16:58:04.409Z,97897.90
2022-11-06T17:00:37.301Z,97896.14
2022-11-06T17:03:21.908Z,97896.26
2022-11-06T17:06:00.670Z,97894.30
2022-11-06T17:08:37.808Z,97893.59
2022-11-06T17:11:23.769Z,97890.29
2022-11-06T17:13:56.607Z,97892.81
2022-11-06T17:16:32.700Z,97893.86
2022-11-06T17:19:07.366Z,97897.13
2022-11-06T17:21:40.161Z,97895.23
2022-11-06T17:24:40.971Z,97891.99
2022-11-06T17:27:05.649Z,97886.19
2022-11-06T17:29:39.106Z,97886.13
2022-11-06T17:32:11.778Z,97883.34
2022-11-06T17:34:44.516Z,97885.55
2022-11-06T17:37:22.287Z,97886.55
2022-11-06T17:39:56.288Z,97884.48
2022-11-06T17:42:26.968Z,97886.41
2022-11-06T17:44:59.868Z,97885.08
2022-11-06T17:47:32.656Z,97885.58
2022-11-06T17:50:05.573Z,97884.20
2022-11-06T17:52:38.157Z,97880.90
2022-11-06T17:55:11.525Z,97879.63
2022-11-06T17:57:44.147Z,97875.63
2022-11-06T18:00:21.269Z,97872.84
2022-11-06T18:03:01.401Z,97872.25
2022-11-06T18:05:36.288Z,97872.73
2022-11-06T18:08:14.036Z,97873.75
2022-11-06T18:10:54.810Z,97873.73
2022-11-06T18:13:27.418Z,97872.11
2022-11-06T18:16:00.279Z,97874.81
2022-11-06T18:18:33.012Z,97873.10
2022-11-06T18:21:11.266Z,97876.68
2022-11-06T18:23:43.861Z,97875.25
2022-11-06T18:26:16.420Z,97877.83
2022-11-06T18:28:49.318Z,97870.62
2022-11-06T18:31:22.655Z,97870.27
2022-11-06T18:33:56.058Z,97875.29
2022-11-06T18:36:31.829Z,97875.31
2022-11-06T18:39:06.130Z,97878.19
2022-11-06T18:41:41.718Z,97877.29
2022-11-06T18:44:14.299Z,97874.21
2022-11-06T18:46:46.825Z,97868.35
2022-11-06T18:49:19.409Z,97871.41
2022-11-06T18:51:52.347Z,97868.83
2022-11-06T18:54:30.440Z,97866.05
2022-11-06T18:57:02.924Z,97863.50
2022-11-06T18:59:35.966Z,97861.09
2022-11-06T19:02:08.607Z,97861.09
2022-11-06T19:04:41.554Z,97858.84
2022-11-06T19:07:14.259Z,97857.60
2022-11-06T19:09:46.799Z,97858.27
2022-11-06T19:12:20.038Z,97853.95
2022-11-06T19:14:52.829Z,97851.98
2022-11-06T19:17:25.506Z,97851.70
2022-11-06T19:19:58.477Z,97846.16
2022-11-06T19:22:32.221Z,97842.58
2022-11-06T19:25:05.334Z,97840.58
2022-11-06T19:27:41.051Z,97839.89
2022-11-06T19:30:15.731Z,97841.29
2022-11-06T19:32:48.581Z,97837.65
2022-11-06T19:35:22.441Z,97842.48
2022-11-06T19:37:55.065Z,97840.14
2022-11-06T19:40:29.669Z,97840.70
2022-11-06T19:43:05.018Z,97840.53
2022-11-06T19:45:39.075Z,97840.09
2022-11-06T19:48:11.887Z,97837.49
2022-11-06T19:51:05.480Z,97834.90
2022-11-06T19:53:38.789Z,97834.01
2022-11-06T19:56:17.289Z,97837.17
2022-11-06T19:58:51.168Z,97834.27
2022-11-06T20:01:24.350Z,97833.33
2022-11-06T20:03:56.980Z,97835.02
2022-11-06T20:06:30.179Z,97834.66
2022-11-06T20:09:03.935Z,97831.95
2022-11-06T20:11:36.656Z,97828.96
2022-11-06T20:14:12.419Z,97832.41
2022-11-06T20:16:45.059Z,97833.13
2022-11-06T20:19:18.030Z,97829.46
2022-11-06T20:21:50.717Z,97830.39
2022-11-06T20:24:24.828Z,97827.88
2022-11-06T20:26:57.308Z,97825.26
2022-11-06T20:29:30.058Z,97821.81
2022-11-06T20:32:02.828Z,97814.95
2022-11-06T20:34:35.951Z,97813.02
2022-11-06T20:37:09.359Z,97810.98
2022-11-06T20:39:44.199Z,97811.34
2022-11-06T20:42:19.980Z,97804.79
2022-11-06T20:44:53.697Z,97800.85
2022-11-06T20:47:27.415Z,97798.65
2022-11-06T20:50:05.583Z,97798.39
2022-11-06T20:52:40.679Z,97796.67
2022-11-06T20:55:13.827Z,97795.55
2022-11-06T20:57:46.751Z,97786.65
2022-11-06T21:00:20.653Z,97789.59
2022-11-06T21:02:58.955Z,97787.58
2022-11-06T21:05:38.137Z,97782.27
2022-11-06T21:08:11.727Z,97783.13
2022-11-06T21:10:55.207Z,97787.85
2022-11-06T21:13:28.677Z,97788.86
2022-11-06T21:16:03.338Z,97788.63
2022-11-06T21:18:39.610Z,97792.05
2022-11-06T21:21:18.018Z,97789.56
2022-11-06T21:23:51.516Z,97785.64
2022-11-06T21:26:25.723Z,97781.73
2022-11-06T21:29:00.447Z,97783.10
2022-11-06T21:31:34.623Z,97789.84
2022-11-06T21:34:07.578Z,97788.66
2022-11-06T21:36:40.803Z,97787.34
2022-11-06T21:39:15.659Z,97784.44
2022-11-06T21:41:49.368Z,97786.95
2022-11-06T21:44:22.231Z,97786.81
2022-11-06T21:46:55.079Z,97786.48
2022-11-06T21:49:27.967Z,97784.16
2022-11-06T21:52:25.095Z,97780.58
2022-11-06T21:55:17.628Z,97781.45
2022-11-06T21:57:50.968Z,97779.63
2022-11-06T22:00:23.989Z,97780.31
2022-11-06T22:02:58.379Z,97782.40
2022-11-06T22:05:31.147Z,97783.86
2022-11-06T22:08:03.736Z,97778.54
2022-11-06T22:10:36.836Z,97774.42
2022-11-06T22:13:09.460Z,97777.05
2022-11-06T22:15:43.829Z,97775.98
2022-11-06T22:18:16.909Z,97770.08
2022-11-06T22:20:51.019Z,97767.86
2022-11-06T22:23:23.620Z,97772.30
2022-11-06T22:25:56.198Z,97773.52
2022-11-06T22:28:28.758Z,97779.36
2022-11-06T22:31:01.720Z,97779.21
2022-11-06T22:33:34.849Z,97772.86
2022-11-06T22:36:09.926Z,97763.09
2022-11-06T22:38:44.868Z,97761.98
2022-11-06T22:41:19.301Z,97747.30
2022-11-06T22:43:52.293Z,97745.30
2022-11-06T22:46:26.111Z,97749.24
2022-11-06T22:48:57.828Z,97755.10
2022-11-06T22:51:31.806Z,97753.98
2022-11-06T22:54:06.608Z,97751.30
2022-11-06T22:56:39.169Z,97751.59
2022-11-06T22:59:14.109Z,97752.45
2022-11-06T23:01:46.704Z,97754.35
2022-11-06T23:04:19.638Z,97751.24
2022-11-06T23:06:52.381Z,97750.92
2022-11-06T23:09:25.068Z,97749.69
2022-11-06T23:11:57.601Z,97740.63
2022-11-06T23:14:30.675Z,97740.47
2022-11-06T23:17:04.620Z,97737.40
2022-11-06T23:19:37.239Z,97733.42
2022-11-06T23:22:27.036Z,97732.58
2022-11-06T23:24:59.899Z,97736.91
2022-11-06T23:27:32.840Z,97736.94
2022-11-06T23:30:06.259Z,97734.52
2022-11-06T23:32:40.109Z,97734.02
2022-11-06T23:35:16.948Z,97731.34
2022-11-06T23:37:49.889Z,97725.63
2022-11-06T23:40:22.488Z,97726.21
2022-11-06T23:42:57.948Z,97725.91
2022-11-06T23:45:47.867Z,97719.52
2022-11-06T23:48:20.806Z,97721.05
2022-11-06T23:50:53.679Z,97711.86
2022-11-06T23:53:26.179Z,97706.35
2022-11-06T23:55:58.749Z,97702.45
2022-11-06T23:58:31.449Z,97701.98
